Time;durP1;ratioP1;P1;durP2;ratioP2;P2;SDS_P1;SDS_P2;PMS_P1;PMS_P2;Temp;Humidity;BMP_temperature;BMP_pressure;BME280_temperature;BME280_humidity;BME280_pressure;Samples;Min_cycle;Max_cycle;Signal;HPM_P1;HPM_P2
2023/11/30 00:01:08;;;;;;;19.42;6.95;;;;;;;-2.09;72.99;98902.38;4984514;28;20053;-43
2023/11/30 00:03:35;;;;;;;13.85;7.28;;;;;;;-2.09;72.87;98896.44;4986464;28;20054;-47
2023/11/30 00:06:02;;;;;;;15.57;6.70;;;;;;;-2.11;73.57;98900.59;4983865;28;20139;-42
2023/11/30 00:08:29;;;;;;;17.48;6.05;;;;;;;-2.12;73.01;98902.28;4985589;28;20081;-42
2023/11/30 00:10:56;;;;;;;22.17;6.35;;;;;;;-2.14;72.83;98898.84;4984215;28;20424;-45
2023/11/30 00:13:22;;;;;;;13.10;4.70;;;;;;;-2.16;73.11;98895.38;4985470;28;20050;-48
2023/11/30 00:15:49;;;;;;;17.02;6.95;;;;;;;-2.17;73.15;98893.66;4991088;28;20054;-42
2023/11/30 00:18:16;;;;;;;15.73;8.10;;;;;;;-2.18;73.64;98897.03;4981260;28;20070;-48
2023/11/30 00:20:43;;;;;;;15.00;5.95;;;;;;;-2.18;73.47;98896.16;4977888;28;20042;-42
2023/11/30 00:23:10;;;;;;;19.70;8.57;;;;;;;-2.21;73.04;98892.72;4986633;28;20045;-45
2023/11/30 00:25:36;;;;;;;16.80;5.88;;;;;;;-2.24;73.17;98892.63;4982514;28;20060;-48
2023/11/30 00:28:04;;;;;;;11.57;5.43;;;;;;;-2.26;73.62;98888.31;4982224;28;20125;-46
2023/11/30 00:30:30;;;;;;;10.02;4.03;;;;;;;-2.29;73.17;98893.31;4977684;28;20558;-45
2023/11/30 00:32:57;;;;;;;19.25;5.00;;;;;;;-2.28;73.09;98895.00;4979183;28;20495;-42
2023/11/30 00:35:24;;;;;;;10.40;4.72;;;;;;;-2.30;73.49;98886.50;4979004;28;20101;-43
2023/11/30 00:37:51;;;;;;;15.98;5.70;;;;;;;-2.29;73.36;98893.31;4979263;28;20169;-45
2023/11/30 00:40:17;;;;;;;14.30;7.57;;;;;;;-2.30;73.48;98892.44;4979071;28;20050;-45
2023/11/30 00:42:44;;;;;;;18.00;8.27;;;;;;;-2.31;73.34;98888.19;4980671;28;20692;-45
2023/11/30 00:45:11;;;;;;;11.95;7.78;;;;;;;-2.32;73.32;98889.84;4976027;28;20081;-46
2023/11/30 00:47:37;;;;;;;13.50;5.35;;;;;;;-2.30;73.95;98891.59;4981427;28;20433;-45
2023/11/30 00:50:05;;;;;;;17.00;5.70;;;;;;;-2.29;73.89;98894.19;4972544;28;20050;-45
2023/11/30 00:52:31;;;;;;;12.80;5.25;;;;;;;-2.27;73.92;98887.47;4981438;28;20145;-45
2023/11/30 00:54:58;;;;;;;16.85;6.03;;;;;;;-2.26;73.19;98883.25;4986606;28;20046;-45
2023/11/30 00:57:25;;;;;;;12.55;6.88;;;;;;;-2.25;73.97;98874.81;4986623;28;20407;-42
2023/11/30 00:59:51;;;;;;;17.20;7.68;;;;;;;-2.24;74.03;98879.06;4987183;28;20054;-44
2023/11/30 01:02:18;;;;;;;17.50;5.50;;;;;;;-2.23;74.15;98878.28;4988769;28;20104;-42
2023/11/30 01:04:45;;;;;;;15.63;6.32;;;;;;;-2.21;74.02;98876.63;4988708;28;20073;-41
2023/11/30 01:07:12;;;;;;;11.05;4.53;;;;;;;-2.19;74.45;98877.56;4986827;28;20125;-44
2023/11/30 01:09:39;;;;;;;14.32;7.63;;;;;;;-2.17;74.04;98872.53;4982352;28;20049;-47
2023/11/30 01:12:06;;;;;;;18.92;5.97;;;;;;;-2.14;73.83;98873.47;4982676;28;20133;-41
2023/11/30 01:14:33;;;;;;;16.20;6.20;;;;;;;-2.12;73.86;98869.31;4980485;28;20057;-46
2023/11/30 01:17:00;;;;;;;18.38;6.32;;;;;;;-2.09;74.46;98864.31;4988997;28;20050;-43
2023/11/30 01:19:27;;;;;;;19.17;5.53;;;;;;;-2.05;73.74;98861.84;4981712;28;20335;-45
2023/11/30 01:21:53;;;;;;;15.23;6.70;;;;;;;-2.04;74.59;98853.41;4983941;28;20065;-43
2023/11/30 01:24:21;;;;;;;16.25;7.05;;;;;;;-2.02;74.47;98856.88;4991681;28;20134;-44
2023/11/30 01:26:48;;;;;;;14.20;6.00;;;;;;;-2.03;74.36;98850.09;4992016;28;20072;-44
2023/11/30 01:29:15;;;;;;;13.02;7.38;;;;;;;-2.02;74.88;98855.22;4990636;28;20054;-41
2023/11/30 01:31:42;;;;;;;13.80;5.32;;;;;;;-2.03;74.68;98848.41;4984051;28;20487;-46
2023/11/30 01:34:09;;;;;;;14.00;5.57;;;;;;;-2.01;73.98;98850.97;4982505;28;20128;-44
2023/11/30 01:36:36;;;;;;;12.75;6.95;;;;;;;-2.03;74.24;98842.47;4980082;28;20090;-43
2023/11/30 01:39:02;;;;;;;12.63;5.38;;;;;;;-2.02;74.42;98842.53;4983747;28;20050;-43
2023/11/30 01:41:29;;;;;;;13.93;5.80;;;;;;;-2.02;74.38;98846.72;4981755;28;20052;-44
2023/11/30 01:43:56;;;;;;;18.05;5.72;;;;;;;-2.02;74.83;98832.38;4980806;28;20050;-46
2023/11/30 01:46:23;;;;;;;14.98;8.07;;;;;;;-2.01;74.59;98836.63;4980920;28;20503;-44
2023/11/30 01:48:50;;;;;;;12.60;6.75;;;;;;;-2.01;74.14;98838.28;4980508;28;20209;-42
2023/11/30 01:51:17;;;;;;;11.48;4.95;;;;;;;-2.00;74.47;98840.00;4980691;28;20049;-41
2023/11/30 01:53:44;;;;;;;11.20;5.40;;;;;;;-2.01;74.76;98843.38;4979070;28;20054;-43
2023/11/30 01:56:12;;;;;;;16.40;8.05;;;;;;;-2.03;74.33;98837.41;4981430;28;20403;-46
2023/11/30 01:58:39;;;;;;;11.95;4.68;;;;;;;-2.03;74.90;98845.00;4978648;28;20146;-40
2023/11/30 02:01:07;;;;;;;12.63;8.50;;;;;;;-2.05;74.36;98839.03;4979257;28;20046;-45
2023/11/30 02:03:35;;;;;;;16.00;8.00;;;;;;;-2.05;73.90;98839.91;4980548;28;20078;-42
2023/11/30 02:06:03;;;;;;;12.70;4.70;;;;;;;-2.08;74.69;98845.75;4976705;28;20133;-43
2023/11/30 02:08:29;;;;;;;14.00;7.47;;;;;;;-2.09;74.50;98856.69;4981678;28;20050;-45
2023/11/30 02:10:56;;;;;;;14.05;5.68;;;;;;;-2.14;74.03;98853.16;4979642;28;20049;-44
2023/11/30 02:13:26;;;;;;;11.25;5.15;;;;;;;-2.17;74.60;98848.00;4980348;28;20053;-45
2023/11/30 02:15:52;;;;;;;14.80;4.97;;;;;;;-2.19;74.05;98849.66;4978690;28;20050;-45
2023/11/30 02:18:19;;;;;;;13.88;7.97;;;;;;;-2.23;74.94;98857.97;4979664;28;20063;-46
2023/11/30 02:20:46;;;;;;;16.33;5.68;;;;;;;-2.25;73.94;98859.59;4976433;28;20047;-43
2023/11/30 02:23:12;;;;;;;10.50;4.40;;;;;;;-2.25;74.83;98844.38;4982333;28;20055;-46
2023/11/30 02:25:39;;;;;;;11.02;3.85;;;;;;;-2.27;74.53;98857.00;4980096;28;20042;-42
2023/11/30 02:28:06;;;;;;;12.75;4.82;;;;;;;-2.26;74.21;98852.81;4979636;28;20516;-48
2023/11/30 02:30:32;;;;;;;10.60;7.50;;;;;;;-2.27;74.81;98857.00;4978456;28;20499;-42
2023/11/30 02:32:59;;;;;;;10.30;4.38;;;;;;;-2.26;74.54;98857.88;4980546;28;20050;-44
2023/11/30 02:35:26;;;;;;;10.70;5.45;;;;;;;-2.28;74.90;98855.31;4980139;28;20050;-43
2023/11/30 02:37:53;;;;;;;13.10;4.68;;;;;;;-2.28;75.14;98859.50;4978480;28;20562;-47
2023/11/30 02:40:19;;;;;;;10.70;5.38;;;;;;;-2.27;74.44;98868.84;4977618;28;20873;-46
2023/11/30 02:42:46;;;;;;;11.93;4.47;;;;;;;-2.28;74.66;98859.50;4979783;28;20050;-45
2023/11/30 02:45:13;;;;;;;14.82;4.75;;;;;;;-2.29;74.27;98863.72;4975508;28;20050;-42
2023/11/30 02:47:40;;;;;;;12.65;6.75;;;;;;;-2.30;74.23;98858.63;4979080;28;20145;-45
2023/11/30 02:50:07;;;;;;;12.30;4.72;;;;;;;-2.29;74.08;98865.41;4983100;28;20578;-41
2023/11/30 02:52:34;;;;;;;9.20;3.65;;;;;;;-2.29;74.48;98865.41;4975094;28;21453;-44
2023/11/30 02:55:00;;;;;;;10.35;4.78;;;;;;;-2.29;74.90;98862.88;4981393;28;20057;-42
2023/11/30 02:57:27;;;;;;;8.30;4.25;;;;;;;-2.30;74.42;98863.69;4978948;28;20046;-42
2023/11/30 02:59:54;;;;;;;12.27;6.88;;;;;;;-2.31;75.08;98865.34;4979161;28;20054;-44
2023/11/30 03:02:20;;;;;;;15.65;5.53;;;;;;;-2.33;74.31;98862.75;4978093;28;20137;-44
2023/11/30 03:04:47;;;;;;;13.10;6.00;;;;;;;-2.33;74.61;98872.06;4981666;28;20061;-42
2023/11/30 03:07:14;;;;;;;7.65;5.57;;;;;;;-2.34;74.15;98871.19;4976802;28;20038;-42
2023/11/30 03:09:41;;;;;;;10.05;4.55;;;;;;;-2.35;74.32;98869.47;4982112;28;20050;-41
2023/11/30 03:12:07;;;;;;;11.80;5.53;;;;;;;-2.37;74.54;98871.09;4972860;28;20054;-44
2023/11/30 03:14:34;;;;;;;8.60;4.30;;;;;;;-2.37;74.25;98870.22;4985167;28;20080;-43
2023/11/30 03:17:01;;;;;;;9.73;4.75;;;;;;;-2.38;74.87;98869.38;4985112;28;20057;-41
2023/11/30 03:19:28;;;;;;;10.18;3.80;;;;;;;-2.37;74.21;98868.56;4982047;28;20046;-45
2023/11/30 03:21:54;;;;;;;12.73;4.70;;;;;;;-2.37;75.25;98866.03;4985042;28;20625;-44
2023/11/30 03:24:22;;;;;;;9.57;3.85;;;;;;;-2.37;75.21;98866.03;4978823;28;20138;-44
2023/11/30 03:26:49;;;;;;;11.20;6.72;;;;;;;-2.37;74.59;98868.56;4985286;28;20822;-44
2023/11/30 03:29:16;;;;;;;9.68;6.55;;;;;;;-2.37;74.70;98871.09;4982239;28;20050;-48
2023/11/30 03:31:43;;;;;;;12.27;4.45;;;;;;;-2.36;75.35;98872.81;4977666;28;20061;-43
2023/11/30 03:34:09;;;;;;;15.40;4.68;;;;;;;-2.36;74.76;98866.91;4977695;28;20053;-42
2023/11/30 03:36:36;;;;;;;15.57;7.75;;;;;;;-2.37;75.53;98870.22;4976503;28;20179;-46
2023/11/30 03:39:04;;;;;;;9.75;4.07;;;;;;;-2.37;74.87;98866.03;4978014;28;20046;-42
2023/11/30 03:41:31;;;;;;;10.32;6.72;;;;;;;-2.39;74.70;98862.59;4977681;28;20458;-44
2023/11/30 03:43:57;;;;;;;10.68;5.55;;;;;;;-2.39;74.68;98862.59;4979389;28;20057;-44
2023/11/30 03:46:24;;;;;;;12.32;6.70;;;;;;;-2.41;74.92;98864.22;4977921;28;20133;-47
2023/11/30 03:48:52;;;;;;;12.25;5.80;;;;;;;-2.42;74.65;98866.69;4976701;28;20050;-44
2023/11/30 03:51:19;;;;;;;10.95;4.15;;;;;;;-2.44;75.13;98866.66;4973216;28;20054;-44
2023/11/30 03:53:46;;;;;;;11.10;5.75;;;;;;;-2.46;74.87;98866.59;4980552;28;20109;-42
2023/11/30 03:56:13;;;;;;;9.10;4.78;;;;;;;-2.46;74.27;98860.69;4985736;28;20518;-47
2023/11/30 03:58:40;;;;;;;17.33;5.72;;;;;;;-2.48;75.26;98859.75;4983233;28;20042;-48
2023/11/30 04:01:06;;;;;;;12.50;5.65;;;;;;;-2.50;74.83;98858.88;4979059;28;20046;-42
2023/11/30 04:03:33;;;;;;;13.10;7.40;;;;;;;-2.51;74.48;98862.19;4978952;28;20057;-45
2023/11/30 04:06:00;;;;;;;9.57;6.55;;;;;;;-2.52;74.66;98857.94;4978570;28;20054;-47
2023/11/30 04:08:26;;;;;;;14.35;4.68;;;;;;;-2.53;75.31;98856.22;4981699;28;20699;-42
2023/11/30 04:10:53;;;;;;;12.15;4.53;;;;;;;-2.52;74.39;98855.41;4980907;28;20562;-42
2023/11/30 04:13:20;;;;;;;10.38;4.18;;;;;;;-2.50;74.56;98858.88;4981362;28;20051;-41
2023/11/30 04:15:47;;;;;;;9.75;4.93;;;;;;;-2.48;75.41;98858.09;4984251;28;22101;-46
2023/11/30 04:18:13;;;;;;;7.47;4.05;;;;;;;-2.44;75.11;98859.03;4986608;28;20699;-43
2023/11/30 04:20:40;;;;;;;8.73;4.95;;;;;;;-2.42;75.24;98857.44;4990068;28;20042;-45
2023/11/30 04:23:08;;;;;;;12.07;7.32;;;;;;;-2.38;75.85;98859.25;4992690;28;20057;-42
2023/11/30 04:25:35;;;;;;;11.15;4.70;;;;;;;-2.33;75.47;98870.38;4995582;28;20044;-41
2023/11/30 04:28:02;;;;;;;13.50;5.35;;;;;;;-2.28;75.38;98860.38;4990016;28;20056;-45
2023/11/30 04:30:29;;;;;;;9.02;4.68;;;;;;;-2.27;75.29;98861.25;4988953;28;20061;-46
2023/11/30 04:32:55;;;;;;;20.95;8.20;;;;;;;-2.24;74.87;98858.78;4987291;28;20050;-45
2023/11/30 04:35:23;;;;;;;14.10;5.38;;;;;;;-2.23;74.90;98857.97;4989204;28;20049;-43
2023/11/30 04:37:49;;;;;;;11.60;4.95;;;;;;;-2.21;75.32;98861.41;4969576;28;20056;-45
2023/11/30 04:40:16;;;;;;;16.10;7.45;;;;;;;-2.20;74.67;98873.28;4978792;28;20053;-42
2023/11/30 04:42:43;;;;;;;12.40;5.55;;;;;;;-2.17;74.83;98868.28;4990164;28;20046;-45
2023/11/30 04:45:09;;;;;;;15.75;9.85;;;;;;;-2.13;74.77;98869.25;4991264;28;20050;-45
2023/11/30 04:47:36;;;;;;;11.80;4.95;;;;;;;-2.10;74.62;98867.66;4986993;28;20125;-44
2023/11/30 04:50:03;;;;;;;16.05;5.85;;;;;;;-2.05;75.46;98872.88;4989774;28;20050;-43
2023/11/30 04:52:30;;;;;;;15.40;6.82;;;;;;;-2.02;75.57;98865.38;4990198;28;20050;-43
2023/11/30 04:54:57;;;;;;;15.85;6.80;;;;;;;-1.98;75.03;98863.75;4993057;28;20046;-43
2023/11/30 04:57:24;;;;;;;20.90;6.43;;;;;;;-1.95;74.62;98858.78;4989242;28;20125;-43
2023/11/30 04:59:51;;;;;;;18.35;6.28;;;;;;;-1.92;75.36;98863.06;4989512;28;20096;-46
2023/11/30 05:02:17;;;;;;;15.45;7.05;;;;;;;-1.88;74.82;98865.75;4996723;28;20072;-41
2023/11/30 05:04:44;;;;;;;22.88;6.13;;;;;;;-1.86;75.17;98864.09;4987847;28;20086;-44
2023/11/30 05:07:11;;;;;;;16.95;5.97;;;;;;;-1.81;75.27;98867.66;4974275;28;20050;-44
2023/11/30 05:09:38;;;;;;;24.90;7.57;;;;;;;-1.76;75.30;98864.38;4988597;28;20047;-44
2023/11/30 05:12:05;;;;;;;27.23;6.22;;;;;;;-1.73;75.17;98864.44;4984531;28;20053;-43
2023/11/30 05:14:32;;;;;;;24.05;6.82;;;;;;;-1.69;75.45;98873.91;4987871;28;20165;-45
2023/11/30 05:16:59;;;;;;;18.17;6.30;;;;;;;-1.66;74.88;98870.56;4981580;28;20058;-48
2023/11/30 05:19:26;;;;;;;23.80;6.00;;;;;;;-1.63;75.51;98875.72;4987105;28;20054;-43
2023/11/30 05:21:52;;;;;;;20.25;6.70;;;;;;;-1.60;75.02;98874.13;4986882;28;20054;-46
2023/11/30 05:24:19;;;;;;;24.67;7.15;;;;;;;-1.57;75.44;98871.69;4990350;28;20050;-45
2023/11/30 05:26:46;;;;;;;19.98;7.25;;;;;;;-1.53;75.45;98867.53;4979550;28;21929;-46
2023/11/30 05:29:13;;;;;;;25.35;6.57;;;;;;;-1.48;75.35;98870.22;4983970;28;20050;-45
2023/11/30 05:31:40;;;;;;;21.30;8.75;;;;;;;-1.44;75.08;98872.00;4989154;28;20494;-43
2023/11/30 05:34:06;;;;;;;23.75;6.93;;;;;;;-1.40;75.39;98872.94;4989513;28;20569;-44
2023/11/30 05:36:33;;;;;;;23.50;7.40;;;;;;;-1.38;75.75;98874.72;4984804;28;20049;-44
2023/11/30 05:39:00;;;;;;;20.85;8.65;;;;;;;-1.34;75.74;98873.97;4981312;28;20054;-45
2023/11/30 05:41:27;;;;;;;25.08;5.90;;;;;;;-1.31;75.75;98863.88;4981805;28;20137;-46
2023/11/30 05:43:54;;;;;;;32.60;5.05;;;;;;;-1.25;75.50;98880.13;4978569;28;20134;-44
2023/11/30 05:46:20;;;;;;;22.73;6.57;;;;;;;-1.23;75.59;98870.84;4982311;28;20051;-44
2023/11/30 05:48:47;;;;;;;32.42;8.43;;;;;;;-1.21;75.25;98874.28;4974173;28;20055;-42
2023/11/30 05:51:14;;;;;;;33.03;7.10;;;;;;;-1.18;75.62;98874.38;4985119;28;20517;-44
2023/11/30 05:53:40;;;;;;;24.17;5.88;;;;;;;-1.14;75.33;98876.19;4984698;28;20071;-43
2023/11/30 05:56:08;;;;;;;25.73;5.68;;;;;;;-1.11;75.85;98871.19;4987332;28;20042;-44
2023/11/30 05:58:34;;;;;;;22.98;5.32;;;;;;;-1.08;76.14;98872.94;4982998;28;20053;-45
2023/11/30 06:01:01;;;;;;;25.30;5.43;;;;;;;-1.05;75.62;98871.31;4982825;28;20097;-43
2023/11/30 06:03:28;;;;;;;15.63;5.25;;;;;;;-1.01;75.88;98871.41;4988695;28;20050;-44
2023/11/30 06:05:56;;;;;;;26.10;6.60;;;;;;;-0.98;75.84;98871.47;4986944;28;20046;-47
2023/11/30 06:08:24;;;;;;;27.92;7.65;;;;;;;-0.97;75.81;98875.75;4987212;28;20121;-42
2023/11/30 06:10:51;;;;;;;18.17;6.70;;;;;;;-0.95;75.73;98877.50;4985294;28;20069;-45
2023/11/30 06:13:18;;;;;;;20.58;5.60;;;;;;;-0.93;75.72;98875.84;4987536;28;20049;-48
2023/11/30 06:15:45;;;;;;;19.52;7.80;;;;;;;-0.91;75.79;98875.91;4983997;28;20052;-44
2023/11/30 06:18:12;;;;;;;21.48;7.28;;;;;;;-0.88;75.22;98883.56;4983389;28;20746;-45
2023/11/30 06:20:38;;;;;;;18.65;8.05;;;;;;;-0.86;75.85;98883.63;4982977;28;20416;-44
2023/11/30 06:23:05;;;;;;;37.42;5.97;;;;;;;-0.85;76.04;98888.75;4981476;28;20050;-46
2023/11/30 06:25:32;;;;;;;63.22;8.55;;;;;;;-0.87;75.95;98887.88;4986471;28;20054;-45
2023/11/30 06:27:58;;;;;;;25.20;6.82;;;;;;;-0.87;75.82;98890.41;4989207;28;20058;-45
2023/11/30 06:30:25;;;;;;;30.48;6.45;;;;;;;-0.85;75.76;98893.00;4985976;28;20046;-46
2023/11/30 06:32:52;;;;;;;19.42;7.28;;;;;;;-0.84;75.97;98889.63;4988629;28;20486;-43
2023/11/30 06:35:19;;;;;;;12.95;5.22;;;;;;;-0.84;76.34;98885.38;4988391;28;20054;-43
2023/11/30 06:37:45;;;;;;;13.35;4.90;;;;;;;-0.83;75.97;98889.66;4986980;28;20054;-46
2023/11/30 06:40:12;;;;;;;12.50;5.80;;;;;;;-0.79;76.34;98885.50;4986530;28;20381;-44
2023/11/30 06:42:39;;;;;;;15.63;5.07;;;;;;;-0.76;76.08;98882.16;4982812;28;20520;-46
2023/11/30 06:45:06;;;;;;;13.30;5.80;;;;;;;-0.74;76.27;98890.69;4986806;28;20057;-41
2023/11/30 06:47:33;;;;;;;12.07;4.38;;;;;;;-0.74;76.55;98885.63;4987577;28;20129;-48
2023/11/30 06:49:59;;;;;;;12.63;6.50;;;;;;;-0.74;76.49;98888.16;4987414;28;20499;-46
2023/11/30 06:52:26;;;;;;;13.85;5.97;;;;;;;-0.72;76.20;98894.13;4981434;28;20054;-45
2023/11/30 06:54:53;;;;;;;11.18;5.35;;;;;;;-0.74;76.65;98895.78;4983064;28;20061;-42
2023/11/30 06:57:20;;;;;;;15.30;6.53;;;;;;;-0.76;76.44;98887.25;4983341;28;20046;-45
2023/11/30 06:59:46;;;;;;;13.23;5.75;;;;;;;-0.77;76.60;98886.41;4979056;28;20058;-47
2023/11/30 07:02:13;;;;;;;11.75;5.72;;;;;;;-0.79;76.53;98895.66;4982356;28;20042;-43
2023/11/30 07:04:40;;;;;;;12.73;6.70;;;;;;;-0.81;76.61;98893.09;4987263;28;20061;-45
2023/11/30 07:07:06;;;;;;;12.30;6.00;;;;;;;-0.79;76.68;98898.22;4978301;28;20068;-43
2023/11/30 07:09:36;;;;;;;12.35;6.07;;;;;;;-0.78;76.26;98895.72;4975627;28;20165;-48
2023/11/30 07:12:03;;;;;;;12.27;5.80;;;;;;;-0.74;76.66;98896.66;4979487;28;20498;-43
2023/11/30 07:14:30;;;;;;;10.55;5.50;;;;;;;-0.70;77.01;98902.66;4980639;28;20046;-45
2023/11/30 07:17:16;;;;;;;9.23;4.88;;;;;;;-0.67;76.78;98903.59;4983033;28;20054;-44
2023/11/30 07:19:43;;;;;;;9.23;4.13;;;;;;;-0.66;76.94;98905.34;4983201;28;20054;-45
2023/11/30 07:22:10;;;;;;;6.63;3.30;;;;;;;-0.63;76.61;98909.63;4985480;28;20046;-46
2023/11/30 07:24:37;;;;;;;7.45;4.32;;;;;;;-0.58;76.75;98912.28;4979151;28;20054;-45
2023/11/30 07:27:03;;;;;;;9.27;4.68;;;;;;;-0.55;76.53;98913.22;4979659;28;20061;-45
2023/11/30 07:29:33;;;;;;;8.35;4.72;;;;;;;-0.50;76.88;98920.09;4982364;28;20503;-43
2023/11/30 07:31:59;;;;;;;5.95;4.05;;;;;;;-0.47;76.60;98915.91;4987637;28;20054;-43
2023/11/30 07:34:26;;;;;;;6.03;4.07;;;;;;;-0.42;76.60;98913.50;4984877;28;20090;-45
2023/11/30 07:36:53;;;;;;;10.27;4.10;;;;;;;-0.38;76.79;98920.38;4985315;28;20061;-47
2023/11/30 07:39:20;;;;;;;4.80;3.58;;;;;;;-0.35;77.23;98920.44;4984686;28;20047;-48
2023/11/30 07:41:48;;;;;;;5.63;3.83;;;;;;;-0.31;76.83;98927.31;4988118;28;20159;-43
2023/11/30 07:44:16;;;;;;;4.53;3.53;;;;;;;-0.26;77.07;98924.91;4987631;28;20041;-44
2023/11/30 07:46:43;;;;;;;4.68;1.48;;;;;;;-0.21;76.90;98932.66;4986093;28;20655;-41
2023/11/30 07:49:11;;;;;;;4.90;3.22;;;;;;;-0.18;77.80;98933.56;4987845;28;20110;-44
2023/11/30 07:51:37;;;;;;;5.65;3.22;;;;;;;-0.14;77.55;98929.38;4980181;28;20046;-54
2023/11/30 07:54:05;;;;;;;1.30;1.00;;;;;;;-0.10;77.02;98936.25;4989419;28;20042;-43
2023/11/30 07:56:32;;;;;;;3.17;1.75;;;;;;;-0.07;77.48;98936.34;4989552;28;20054;-50
2023/11/30 07:59:00;;;;;;;7.68;3.17;;;;;;;-0.03;77.06;98942.38;4991224;28;20132;-48
2023/11/30 08:01:28;;;;;;;5.55;2.97;;;;;;;0.01;78.04;98949.25;4989835;28;20046;-44
2023/11/30 08:03:54;;;;;;;2.78;0.98;;;;;;;0.04;77.42;98948.47;4990317;28;20140;-43
2023/11/30 08:06:21;;;;;;;3.75;3.33;;;;;;;0.06;77.73;98949.34;4988786;28;20054;-43
2023/11/30 08:08:48;;;;;;;4.43;3.90;;;;;;;0.06;77.46;98956.97;4989970;28;20105;-46
2023/11/30 08:11:15;;;;;;;4.05;1.63;;;;;;;0.05;78.02;98955.25;4991006;28;20553;-43
2023/11/30 08:13:42;;;;;;;4.78;2.65;;;;;;;0.05;77.74;98955.25;4989673;28;20043;-40
2023/11/30 08:16:09;;;;;;;3.95;3.35;;;;;;;0.05;78.17;98956.13;4989527;28;20062;-45
2023/11/30 08:18:35;;;;;;;2.97;2.58;;;;;;;0.07;78.14;98954.47;4989323;28;20073;-41
2023/11/30 08:21:02;;;;;;;4.20;3.45;;;;;;;0.11;78.29;98963.03;4990114;28;20050;-43
2023/11/30 08:23:30;;;;;;;6.22;1.92;;;;;;;0.15;78.69;98964.84;4988220;28;20428;-46
2023/11/30 08:25:57;;;;;;;4.97;2.78;;;;;;;0.19;78.56;98964.06;4988186;28;20362;-44
2023/11/30 08:28:25;;;;;;;4.63;2.83;;;;;;;0.28;78.33;98970.19;4990047;28;20050;-46
2023/11/30 08:30:51;;;;;;;7.28;3.47;;;;;;;0.43;78.15;98967.97;4988704;28;20047;-47
2023/11/30 08:33:18;;;;;;;6.78;3.95;;;;;;;0.73;78.27;98966.88;4989829;28;20042;-44
2023/11/30 08:35:45;;;;;;;6.15;3.38;;;;;;;1.06;78.70;98964.94;4989877;28;20050;-46
2023/11/30 08:38:12;;;;;;;5.68;4.35;;;;;;;1.27;78.87;98961.91;4988820;28;20085;-45
2023/11/30 08:40:39;;;;;;;6.20;4.50;;;;;;;1.37;76.93;98969.72;4988508;28;20061;-46
2023/11/30 08:43:06;;;;;;;4.65;3.25;;;;;;;1.40;77.33;98972.31;4990391;28;20043;-44
2023/11/30 08:45:32;;;;;;;5.22;3.35;;;;;;;1.40;76.31;98977.44;4989547;28;20038;-49
2023/11/30 08:47:59;;;;;;;4.43;3.20;;;;;;;1.41;77.72;98976.59;4989825;28;20058;-42
2023/11/30 08:50:26;;;;;;;6.32;3.40;;;;;;;1.43;77.62;98982.59;4990105;28;20095;-46
2023/11/30 08:52:52;;;;;;;8.65;3.88;;;;;;;1.45;76.56;98980.91;4990373;28;20050;-50
2023/11/30 08:55:19;;;;;;;6.10;3.45;;;;;;;1.48;76.57;98985.19;4991036;28;20069;-44
2023/11/30 08:57:46;;;;;;;7.43;3.53;;;;;;;1.50;76.79;98986.09;4989522;28;20073;-43
2023/11/30 09:00:13;;;;;;;5.65;3.65;;;;;;;1.66;77.57;98980.41;4990450;28;20054;-46
2023/11/30 09:02:40;;;;;;;6.07;4.05;;;;;;;1.82;77.26;98982.34;4990583;28;20042;-46
2023/11/30 09:05:08;;;;;;;8.15;4.82;;;;;;;2.09;77.49;98981.06;4989584;28;20057;-44
2023/11/30 09:07:36;;;;;;;9.70;4.75;;;;;;;2.48;78.71;98990.09;4989695;28;20049;-45
2023/11/30 09:10:04;;;;;;;12.23;5.07;;;;;;;2.97;79.44;98988.97;4990814;28;20049;-44
2023/11/30 09:12:31;;;;;;;9.80;4.82;;;;;;;3.80;80.56;98987.16;4990844;28;20462;-50
2023/11/30 09:14:59;;;;;;;10.48;5.10;;;;;;;4.97;80.76;98987.81;4989036;28;20042;-45
2023/11/30 09:17:26;;;;;;;7.35;4.35;;;;;;;6.26;78.86;98998.19;4991187;28;20052;-45
2023/11/30 09:19:53;;;;;;;5.65;3.63;;;;;;;7.41;78.29;99001.97;4992081;28;20137;-46
2023/11/30 09:22:19;;;;;;;6.72;3.40;;;;;;;8.45;74.84;99001.94;4989915;28;20041;-45
2023/11/30 09:24:46;;;;;;;6.18;4.32;;;;;;;9.34;73.30;99008.59;4990862;28;20042;-44
2023/11/30 09:27:13;;;;;;;3.42;3.13;;;;;;;10.20;71.67;99005.47;4990189;28;20419;-45
2023/11/30 09:29:40;;;;;;;2.30;2.08;;;;;;;10.76;69.46;99001.88;4990366;28;20058;-47
2023/11/30 09:32:07;;;;;;;2.60;2.20;;;;;;;11.34;68.32;99012.78;4991179;28;20043;-50
2023/11/30 09:34:34;;;;;;;2.58;2.38;;;;;;;11.75;66.51;99000.56;4988530;28;20053;-46
2023/11/30 09:37:00;;;;;;;2.53;2.33;;;;;;;12.08;66.10;99010.16;4987909;28;20050;-48
2023/11/30 09:39:27;;;;;;;1.80;0.80;;;;;;;12.22;64.52;98999.41;4990193;28;20469;-46
2023/11/30 09:41:57;;;;;;;4.05;2.70;;;;;;;12.14;63.85;99006.56;4990187;28;20101;-45
2023/11/30 09:44:24;;;;;;;2.15;0.73;;;;;;;12.13;64.44;98999.69;4991280;28;20529;-47
2023/11/30 09:46:50;;;;;;;3.13;2.17;;;;;;;12.45;63.94;99005.75;4989166;28;20050;-48
2023/11/30 09:49:18;;;;;;;3.50;2.80;;;;;;;12.84;62.86;99005.50;4990178;28;20052;-47
2023/11/30 09:51:50;;;;;;;2.55;2.35;;;;;;;13.23;62.43;99013.94;4975959;28;20138;-46
2023/11/30 09:54:16;;;;;;;2.42;2.22;;;;;;;13.65;60.73;99014.41;4988268;28;20097;-46
2023/11/30 09:56:43;;;;;;;2.50;2.30;;;;;;;13.96;60.25;99018.63;4992159;28;20133;-43
2023/11/30 09:59:11;;;;;;;3.33;3.05;;;;;;;14.35;59.04;99015.56;4988682;28;20054;-44
2023/11/30 10:01:39;;;;;;;4.30;3.83;;;;;;;14.71;58.30;99016.03;4988182;28;20054;-48
2023/11/30 10:06:54;;;;;;;1.90;1.17;;;;;;;15.67;57.26;99006.34;5050023;27;20385;-41
2023/11/30 10:09:23;;;;;;;1.60;0.80;;;;;;;16.13;55.71;99002.75;5032697;28;20045;-45
2023/11/30 10:11:49;;;;;;;2.53;1.25;;;;;;;16.39;54.36;99006.88;5030107;28;20490;-43
2023/11/30 10:14:17;;;;;;;3.63;1.85;;;;;;;16.43;53.33;99005.84;5029820;28;20056;-48
2023/11/30 10:16:44;;;;;;;2.78;1.20;;;;;;;16.30;51.36;99004.66;5030613;28;20048;-44
2023/11/30 10:19:11;;;;;;;2.83;1.02;;;;;;;16.23;51.57;99003.22;5029997;28;20514;-49
2023/11/30 10:21:39;;;;;;;2.38;1.20;;;;;;;16.26;51.37;99003.09;5032522;28;20057;-44
2023/11/30 10:24:07;;;;;;;3.15;1.10;;;;;;;16.30;50.82;99012.50;5029347;28;20520;-47
2023/11/30 10:26:37;;;;;;;2.03;1.45;;;;;;;16.17;49.59;99005.19;5032537;28;20633;-46
2023/11/30 10:29:06;;;;;;;;;;;;;;;15.89;48.67;99003.72;5031381;28;20163;-46
2023/11/30 10:31:35;;;;;;;2.20;1.05;;;;;;;15.48;49.41;99006.25;5026810;28;20341;-45
2023/11/30 10:34:07;;;;;;;3.47;2.38;;;;;;;14.90;48.79;99001.47;5023002;28;20050;-43
2023/11/30 10:36:37;;;;;;;3.63;1.00;;;;;;;14.27;49.81;98999.34;5035166;28;20045;-48
2023/11/30 10:39:16;;;;;;;1.70;0.90;;;;;;;13.55;50.59;99000.84;5030585;28;20583;-46
2023/11/30 10:41:50;;;;;;;2.63;0.90;;;;;;;12.78;51.12;98997.91;5034878;28;20103;-48
2023/11/30 10:44:25;;;;;;;1.80;1.20;;;;;;;12.12;51.20;98991.03;5029234;28;20476;-46
2023/11/30 10:46:54;;;;;;;6.63;2.63;;;;;;;11.59;52.48;98988.88;5027565;28;20045;-46
2023/11/30 10:49:23;;;;;;;2.05;1.20;;;;;;;11.15;52.98;98976.91;5027363;28;20045;-47
2023/11/30 10:51:51;;;;;;;2.00;1.20;;;;;;;10.91;53.67;98976.56;5027937;28;20064;-48
2023/11/30 10:54:28;;;;;;;1.38;0.73;;;;;;;10.49;54.24;98983.44;5022143;28;20049;-44
2023/11/30 10:56:56;;;;;;;1.20;0.90;;;;;;;9.95;54.18;98979.19;5038582;28;20417;-45
2023/11/30 10:59:24;;;;;;;3.20;1.05;;;;;;;9.54;55.03;98979.00;5028038;28;20049;-48
2023/11/30 11:01:51;;;;;;;1.73;1.10;;;;;;;9.09;55.69;98972.78;5034010;28;20045;-48
2023/11/30 11:04:18;;;;;;;1.60;0.93;;;;;;;8.70;55.68;98970.69;5030181;28;20044;-48
2023/11/30 11:06:46;;;;;;;2.22;1.23;;;;;;;8.41;56.58;98970.13;5026516;28;20598;-48
2023/11/30 11:09:15;;;;;;;4.10;1.42;;;;;;;8.20;57.62;98971.22;5030665;28;20064;-43
2023/11/30 11:11:44;;;;;;;3.53;0.93;;;;;;;8.03;57.13;98974.81;5037720;28;20054;-44
2023/11/30 11:17:08;;;;;;;2.78;1.65;;;;;;;8.25;57.33;98969.47;5059082;28;20518;-47
2023/11/30 11:19:40;;;;;;;2.20;0.70;;;;;;;7.86;58.80;98979.31;5004733;28;20312;-50
2023/11/30 11:22:23;;;;;;;3.25;2.78;;;;;;;7.71;58.83;98979.38;5034646;28;20057;-46
2023/11/30 11:24:59;;;;;;;2.03;1.83;;;;;;;7.61;59.19;98977.78;4999952;28;20050;-52
2023/11/30 11:30:07;;;;;;;4.07;0.80;;;;;;;7.54;59.06;98973.53;5114274;27;20891;-50
2023/11/30 11:32:35;;;;;;;3.53;2.22;;;;;;;7.53;57.82;98974.41;5066941;28;20040;-51
2023/11/30 11:35:03;;;;;;;1.20;0.88;;;;;;;7.33;58.70;98967.69;5089285;28;20048;-48
2023/11/30 11:37:30;;;;;;;1.45;0.68;;;;;;;7.18;57.88;98969.47;5085227;28;20046;-53